createdAt,value
2018-02-17T00:02:25.849Z,95.80
2018-02-17T00:04:53.534Z,95.80
2018-02-17T00:07:21.107Z,95.90
2018-02-17T00:09:49.741Z,95.90
2018-02-17T00:12:17.412Z,95.90
2018-02-17T00:14:44.959Z,95.90
2018-02-17T00:17:12.636Z,95.90
2018-02-17T00:19:40.403Z,95.90
2018-02-17T00:22:08.777Z,95.90
2018-02-17T00:24:36.485Z,95.90
2018-02-17T00:27:04.223Z,96.00
2018-02-17T00:29:31.986Z,96.00
2018-02-17T00:31:59.642Z,96.00
2018-02-17T00:34:27.343Z,95.90
2018-02-17T00:36:55.781Z,95.90
2018-02-17T00:39:23.520Z,95.90
2018-02-17T00:41:51.318Z,95.90
2018-02-17T00:44:18.873Z,96.00
2018-02-17T00:46:46.456Z,96.30
2018-02-17T00:49:14.032Z,95.90
2018-02-17T00:51:41.576Z,96.00
2018-02-17T00:54:09.148Z,96.00
2018-02-17T00:56:36.708Z,95.90
2018-02-17T00:59:04.280Z,95.90
2018-02-17T01:01:31.856Z,95.90
2018-02-17T01:04:00.174Z,96.00
2018-02-17T01:06:27.769Z,96.00
2018-02-17T01:08:55.333Z,96.00
2018-02-17T01:11:22.872Z,96.00
2018-02-17T01:13:50.445Z,96.00
2018-02-17T01:16:17.979Z,96.00
2018-02-17T01:18:45.651Z,96.00
2018-02-17T01:21:13.225Z,96.00
2018-02-17T01:23:40.743Z,96.00
2018-02-17T01:26:09.075Z,96.00
2018-02-17T01:28:36.611Z,96.00
2018-02-17T01:31:04.147Z,96.10
2018-02-17T01:33:31.722Z,96.10
2018-02-17T01:35:59.269Z,96.10
2018-02-17T01:38:26.850Z,96.10
2018-02-17T01:40:54.385Z,96.10
2018-02-17T01:43:21.968Z,96.10
2018-02-17T01:45:49.535Z,96.00
2018-02-17T01:48:17.106Z,96.00
2018-02-17T01:50:44.680Z,96.10
2018-02-17T01:53:12.221Z,96.10
2018-02-17T01:55:39.819Z,96.10
2018-02-17T01:58:07.405Z,96.10
2018-02-17T02:00:35.712Z,96.10
2018-02-17T02:03:03.245Z,96.10
2018-02-17T02:05:31.603Z,96.10
2018-02-17T02:07:59.147Z,96.10
2018-02-17T02:10:26.724Z,96.10
2018-02-17T02:12:54.255Z,96.10
2018-02-17T02:15:21.825Z,96.10
2018-02-17T02:17:50.903Z,96.10
2018-02-17T02:20:18.437Z,96.10
2018-02-17T02:22:46.022Z,96.10
2018-02-17T02:25:13.561Z,96.10
2018-02-17T02:27:41.096Z,96.10
2018-02-17T02:30:09.427Z,96.20
2018-02-17T02:32:36.966Z,96.20
2018-02-17T02:35:04.540Z,96.20
2018-02-17T02:37:32.073Z,96.20
2018-02-17T02:39:59.646Z,96.20
2018-02-17T02:42:27.222Z,96.20
2018-02-17T02:44:54.827Z,96.10
2018-02-17T02:47:23.120Z,96.10
2018-02-17T02:49:50.692Z,96.10
2018-02-17T02:52:18.224Z,96.20
2018-02-17T02:54:46.558Z,96.20
2018-02-17T02:57:14.140Z,96.10
2018-02-17T02:59:41.677Z,96.50
2018-02-17T03:02:09.222Z,96.20
2018-02-17T03:04:36.792Z,96.10
2018-02-17T03:07:04.472Z,96.20
2018-02-17T03:09:32.049Z,96.20
2018-02-17T03:11:59.583Z,96.20
2018-02-17T03:14:27.160Z,96.20
2018-02-17T03:16:54.696Z,96.20
2018-02-17T03:19:22.241Z,96.20
2018-02-17T03:21:49.812Z,96.30
2018-02-17T03:24:17.384Z,96.20
2018-02-17T03:26:44.925Z,96.20
2018-02-17T03:29:12.459Z,96.20
2018-02-17T03:31:40.033Z,96.20
2018-02-17T03:34:07.567Z,96.20
2018-02-17T03:36:35.158Z,96.10
2018-02-17T03:39:02.687Z,96.20
2018-02-17T03:41:31.024Z,96.30
2018-02-17T03:43:59.265Z,96.30
2018-02-17T03:46:26.804Z,96.30
2018-02-17T03:48:54.376Z,96.20
2018-02-17T03:51:21.949Z,96.30
2018-02-17T03:53:49.515Z,96.20
2018-02-17T03:56:17.055Z,96.30
2018-02-17T03:58:44.624Z,96.20
2018-02-17T04:01:12.192Z,96.30
2018-02-17T04:03:39.728Z,96.30
2018-02-17T04:06:07.315Z,96.30
2018-02-17T04:08:34.857Z,96.30
2018-02-17T04:11:02.396Z,96.30
2018-02-17T04:13:29.964Z,96.30
2018-02-17T04:15:57.503Z,96.30
2018-02-17T04:18:25.814Z,96.30
2018-02-17T04:20:53.349Z,96.30
2018-02-17T04:23:20.921Z,96.40
2018-02-17T04:25:48.454Z,96.30
2018-02-17T04:28:16.790Z,96.30
2018-02-17T04:30:44.326Z,96.40
2018-02-17T04:33:11.896Z,96.30
2018-02-17T04:35:39.430Z,96.30
2018-02-17T04:38:07.008Z,96.30
2018-02-17T04:40:37.057Z,96.40
2018-02-17T04:43:04.592Z,96.40
2018-02-17T04:45:42.947Z,96.40
2018-02-17T04:48:12.777Z,96.50
2018-02-17T04:50:41.920Z,96.30
2018-02-17T04:53:15.198Z,96.30
2018-02-17T04:55:48.448Z,96.30
2018-02-17T04:58:22.539Z,96.30
2018-02-17T05:00:52.596Z,96.30
2018-02-17T05:03:35.010Z,96.30
2018-02-17T05:06:08.154Z,96.40
2018-02-17T05:08:39.427Z,96.30
2018-02-17T05:11:07.761Z,96.40
2018-02-17T05:13:35.290Z,96.40
2018-02-17T05:16:08.479Z,96.70
2018-02-17T05:18:37.700Z,96.40
2018-02-17T05:21:17.096Z,96.30
2018-02-17T05:23:51.158Z,96.30
2018-02-17T05:26:37.544Z,96.30
2018-02-17T05:29:17.970Z,96.30
2018-02-17T05:31:50.989Z,96.30
2018-02-17T05:34:26.260Z,96.30
2018-02-17T05:36:56.463Z,96.40
2018-02-17T05:39:33.946Z,96.30
2018-02-17T05:42:19.168Z,96.30
2018-02-17T05:44:52.269Z,96.30
2018-02-17T05:47:29.199Z,96.30
2018-02-17T05:50:06.651Z,96.30
2018-02-17T05:52:34.237Z,96.40
2018-02-17T05:55:01.776Z,96.40
2018-02-17T05:57:30.229Z,96.40
2018-02-17T05:59:58.558Z,96.40
2018-02-17T06:02:26.097Z,96.40
2018-02-17T06:04:53.666Z,96.40
2018-02-17T06:07:21.245Z,96.50
2018-02-17T06:09:48.770Z,96.40
2018-02-17T06:12:16.304Z,96.40
2018-02-17T06:14:44.660Z,96.70
2018-02-17T06:17:12.194Z,96.60
2018-02-17T06:19:39.777Z,96.50
2018-02-17T06:22:07.316Z,96.40
2018-02-17T06:24:34.884Z,96.40
2018-02-17T06:27:02.452Z,96.80
2018-02-17T06:29:29.984Z,96.50
2018-02-17T06:31:57.561Z,96.60
2018-02-17T06:34:25.132Z,96.70
2018-02-17T06:36:52.665Z,96.70
2018-02-17T06:39:20.229Z,96.70
2018-02-17T06:41:47.764Z,96.70
2018-02-17T06:44:15.333Z,96.70
2018-02-17T06:46:42.900Z,96.80
2018-02-17T06:49:10.440Z,96.60
2018-02-17T06:51:38.034Z,96.60
2018-02-17T06:54:05.576Z,96.60
2018-02-17T06:56:43.752Z,97.00
2018-02-17T06:59:12.074Z,96.70
2018-02-17T07:01:39.607Z,96.80
2018-02-17T07:04:07.176Z,96.70
2018-02-17T07:06:34.706Z,97.00
2018-02-17T07:09:03.044Z,96.90
2018-02-17T07:11:30.590Z,96.90
2018-02-17T07:13:58.251Z,96.90
2018-02-17T07:16:25.896Z,96.90
2018-02-17T07:18:53.472Z,96.80
2018-02-17T07:21:21.004Z,96.80
2018-02-17T07:23:48.576Z,97.00
2018-02-17T07:26:16.108Z,96.90
2018-02-17T07:28:44.444Z,97.10
2018-02-17T07:31:11.979Z,97.00
2018-02-17T07:33:39.512Z,97.10
2018-02-17T07:36:07.085Z,97.10
2018-02-17T07:38:34.845Z,96.90
2018-02-17T07:41:02.545Z,96.90
2018-02-17T07:43:30.099Z,96.90
2018-02-17T07:45:57.672Z,97.00
2018-02-17T07:48:25.212Z,97.00
2018-02-17T07:50:52.856Z,96.90
2018-02-17T07:53:20.391Z,97.00
2018-02-17T07:55:47.961Z,96.80
2018-02-17T07:58:15.501Z,96.90
2018-02-17T08:00:43.843Z,97.00
2018-02-17T08:03:11.421Z,97.00
2018-02-17T08:05:38.956Z,97.00
2018-02-17T08:08:06.487Z,97.00
2018-02-17T08:10:34.060Z,97.00
2018-02-17T08:13:01.591Z,97.00
2018-02-17T08:15:29.154Z,97.00
2018-02-17T08:17:56.684Z,96.90
2018-02-17T08:20:25.019Z,97.00
2018-02-17T08:22:52.555Z,97.00
2018-02-17T08:25:20.143Z,96.90
2018-02-17T08:27:47.677Z,96.90
2018-02-17T08:30:15.252Z,96.90
2018-02-17T08:32:42.824Z,96.80
2018-02-17T08:35:10.360Z,96.80
2018-02-17T08:37:37.899Z,96.70
2018-02-17T08:40:05.459Z,96.60
2018-02-17T08:42:33.038Z,96.70
2018-02-17T08:45:00.583Z,96.70
2018-02-17T08:47:28.158Z,96.70
2018-02-17T08:49:55.724Z,96.80
2018-02-17T08:52:23.263Z,96.70
2018-02-17T08:54:50.844Z,96.80
2018-02-17T08:57:18.377Z,96.80
2018-02-17T08:59:45.914Z,96.90
2018-02-17T09:02:14.256Z,96.90
2018-02-17T09:04:41.798Z,96.90
2018-02-17T09:07:09.376Z,96.80
2018-02-17T09:09:36.907Z,96.60
2018-02-17T09:12:04.444Z,96.70
2018-02-17T09:14:32.788Z,96.80
2018-02-17T09:17:00.314Z,96.80
2018-02-17T09:19:27.879Z,96.80
2018-02-17T09:21:55.414Z,96.90
2018-02-17T09:24:22.993Z,96.90
2018-02-17T09:26:50.527Z,96.90
2018-02-17T09:29:18.097Z,96.90
2018-02-17T09:31:45.632Z,96.80
2018-02-17T09:34:13.989Z,96.80
2018-02-17T09:36:41.525Z,96.80
2018-02-17T09:39:09.069Z,96.90
2018-02-17T09:41:36.653Z,96.90
2018-02-17T09:44:04.192Z,96.90
2018-02-17T09:46:31.732Z,96.80
2018-02-17T09:48:59.295Z,96.90
2018-02-17T09:51:26.867Z,96.90
2018-02-17T09:53:54.396Z,97.20
2018-02-17T09:56:22.725Z,96.80
2018-02-17T09:58:50.299Z,96.80
2018-02-17T10:01:17.875Z,96.80
2018-02-17T10:03:46.184Z,96.90
2018-02-17T10:06:13.724Z,96.80
2018-02-17T10:08:42.060Z,96.80
2018-02-17T10:11:09.594Z,96.80
2018-02-17T10:13:37.167Z,96.80
2018-02-17T10:16:04.695Z,96.80
2018-02-17T10:18:32.228Z,96.90
2018-02-17T10:21:00.575Z,96.80
2018-02-17T10:23:28.113Z,96.80
2018-02-17T10:25:55.684Z,96.80
2018-02-17T10:28:23.230Z,96.80
2018-02-17T10:30:50.996Z,96.80
2018-02-17T10:33:18.527Z,96.80
2018-02-17T10:35:46.106Z,96.80
2018-02-17T10:38:13.639Z,96.80
2018-02-17T10:40:41.939Z,96.80
2018-02-17T10:43:09.516Z,96.80
2018-02-17T10:45:37.052Z,96.90
2018-02-17T10:48:04.639Z,96.90
2018-02-17T10:50:32.171Z,96.90
2018-02-17T10:52:59.716Z,96.80
2018-02-17T10:55:33.791Z,96.90
2018-02-17T10:58:01.324Z,96.90
2018-02-17T11:00:28.897Z,96.90
2018-02-17T11:02:56.433Z,97.00
2018-02-17T11:05:24.006Z,96.90
2018-02-17T11:07:51.581Z,96.90
2018-02-17T11:10:19.220Z,96.90
2018-02-17T11:12:46.773Z,97.00
2018-02-17T11:15:14.303Z,96.90
2018-02-17T11:17:42.656Z,97.00
2018-02-17T11:20:10.956Z,96.90
2018-02-17T11:22:39.264Z,97.00
2018-02-17T11:25:06.845Z,97.00
2018-02-17T11:27:34.386Z,97.00
2018-02-17T11:30:01.951Z,97.00
2018-02-17T11:32:29.492Z,97.00
2018-02-17T11:34:57.074Z,96.90
2018-02-17T11:37:24.627Z,96.80
2018-02-17T11:39:52.179Z,96.70
2018-02-17T11:42:19.747Z,96.70
2018-02-17T11:44:47.317Z,96.70
2018-02-17T11:47:14.844Z,96.80
2018-02-17T11:49:42.411Z,96.70
2018-02-17T11:52:09.998Z,96.80
2018-02-17T11:54:37.535Z,96.80
2018-02-17T11:57:05.073Z,96.70
2018-02-17T11:59:33.414Z,96.70
2018-02-17T12:02:00.955Z,96.70
2018-02-17T12:04:28.533Z,96.80
2018-02-17T12:06:56.077Z,97.00
2018-02-17T12:09:23.604Z,97.00
2018-02-17T12:11:51.184Z,96.90
2018-02-17T12:14:18.760Z,96.90
2018-02-17T12:16:46.289Z,96.90
2018-02-17T12:19:13.838Z,96.80
2018-02-17T12:21:41.400Z,96.80
2018-02-17T12:24:08.977Z,96.80
2018-02-17T12:26:36.561Z,96.70
2018-02-17T12:29:04.110Z,96.70
2018-02-17T12:31:31.643Z,96.70
2018-02-17T12:33:59.224Z,96.70
2018-02-17T12:36:26.797Z,96.70
2018-02-17T12:38:54.342Z,96.60
2018-02-17T12:41:21.875Z,96.70
2018-02-17T12:43:49.453Z,96.70
2018-02-17T12:46:17.025Z,96.80
2018-02-17T12:48:44.559Z,96.80
2018-02-17T12:51:12.145Z,96.80
2018-02-17T12:53:39.685Z,96.70
2018-02-17T12:56:07.224Z,96.70
2018-02-17T12:58:35.561Z,96.70
2018-02-17T13:01:03.105Z,96.70
2018-02-17T13:03:30.683Z,96.70
2018-02-17T13:05:58.212Z,96.70
2018-02-17T13:08:25.789Z,96.70
2018-02-17T13:10:53.323Z,96.70
2018-02-17T13:13:20.891Z,96.60
2018-02-17T13:15:48.443Z,96.60
2018-02-17T13:18:16.235Z,96.60
2018-02-17T13:20:43.787Z,96.50
2018-02-17T13:23:11.321Z,96.60
2018-02-17T13:25:38.914Z,96.50
2018-02-17T13:28:06.462Z,96.60
2018-02-17T13:30:33.992Z,96.60
2018-02-17T13:33:01.572Z,96.50
2018-02-17T13:35:29.113Z,96.60
2018-02-17T13:37:56.690Z,96.60
2018-02-17T13:40:24.266Z,96.70
2018-02-17T13:42:51.860Z,96.60
2018-02-17T13:45:19.432Z,95.90
2018-02-17T13:47:47.733Z,96.20
2018-02-17T13:50:15.302Z,96.20
2018-02-17T13:52:42.840Z,96.40
2018-02-17T13:55:10.425Z,96.30
2018-02-17T13:57:37.956Z,96.30
2018-02-17T14:00:05.515Z,96.30
2018-02-17T14:02:33.867Z,96.30
2018-02-17T14:05:01.457Z,96.30
2018-02-17T14:07:29.001Z,96.20
2018-02-17T14:09:57.361Z,96.30
2018-02-17T14:12:24.898Z,96.30
2018-02-17T14:14:52.489Z,96.30
2018-02-17T14:17:20.096Z,96.20
2018-02-17T14:19:47.676Z,96.30
2018-02-17T14:22:15.223Z,96.20
2018-02-17T14:24:42.808Z,96.20
2018-02-17T14:27:10.343Z,96.20
2018-02-17T14:29:37.924Z,96.30
2018-02-17T14:32:05.489Z,96.20
2018-02-17T14:34:33.081Z,96.20
2018-02-17T14:37:01.388Z,96.30
2018-02-17T14:39:28.975Z,96.20
2018-02-17T14:41:56.503Z,96.20
2018-02-17T14:44:24.102Z,96.20
2018-02-17T14:46:51.642Z,96.30
2018-02-17T14:49:19.231Z,96.30
2018-02-17T14:51:46.772Z,96.20
2018-02-17T14:54:14.364Z,96.30
2018-02-17T14:56:41.928Z,96.20
2018-02-17T14:59:10.279Z,96.30
2018-02-17T15:01:37.818Z,96.20
2018-02-17T15:04:05.478Z,96.20
2018-02-17T15:06:33.064Z,96.20
2018-02-17T15:09:00.630Z,96.20
2018-02-17T15:11:28.172Z,96.20
2018-02-17T15:13:55.758Z,96.20
2018-02-17T15:16:23.291Z,96.20
2018-02-17T15:18:50.875Z,96.20
2018-02-17T15:21:18.453Z,96.20
2018-02-17T15:23:46.795Z,96.20
2018-02-17T15:26:14.339Z,96.20
2018-02-17T15:28:41.923Z,96.20
2018-02-17T15:31:09.453Z,96.10
2018-02-17T15:33:37.040Z,96.20
2018-02-17T15:36:04.580Z,96.20
2018-02-17T15:38:32.165Z,96.10
2018-02-17T15:40:59.701Z,96.20
2018-02-17T15:43:27.284Z,96.10
2018-02-17T15:45:54.815Z,96.10
2018-02-17T15:48:22.394Z,96.10
2018-02-17T15:50:49.929Z,96.10
2018-02-17T15:53:17.516Z,96.10
2018-02-17T15:55:45.046Z,96.10
2018-02-17T15:58:12.624Z,96.10
2018-02-17T16:00:40.157Z,96.10
2018-02-17T16:03:07.736Z,96.10
2018-02-17T16:05:35.300Z,96.00
2018-02-17T16:08:02.891Z,96.00
2018-02-17T16:10:30.425Z,96.00
2018-02-17T16:12:58.007Z,96.00
2018-02-17T16:15:25.533Z,96.00
2018-02-17T16:17:53.116Z,96.00
2018-02-17T16:20:20.659Z,96.00
2018-02-17T16:22:48.257Z,96.00
2018-02-17T16:25:16.688Z,96.10
2018-02-17T16:27:44.234Z,96.10
2018-02-17T16:30:11.823Z,96.00
2018-02-17T16:32:39.384Z,96.10
2018-02-17T16:35:06.976Z,96.00
2018-02-17T16:37:35.279Z,96.10
2018-02-17T16:40:02.868Z,96.10
2018-02-17T16:42:30.404Z,96.00
2018-02-17T16:44:57.992Z,96.00
2018-02-17T16:47:25.519Z,96.00
2018-02-17T16:49:53.122Z,96.00
2018-02-17T16:52:20.674Z,96.00
2018-02-17T16:54:48.306Z,96.00
2018-02-17T16:57:15.845Z,96.00
2018-02-17T16:59:44.201Z,96.00
2018-02-17T17:02:11.773Z,96.00
2018-02-17T17:04:39.344Z,96.00
2018-02-17T17:07:07.644Z,96.00
2018-02-17T17:09:35.230Z,96.00
2018-02-17T17:12:02.759Z,95.90
2018-02-17T17:14:30.344Z,96.00
2018-02-17T17:16:57.878Z,96.00
2018-02-17T17:19:25.455Z,96.00
2018-02-17T17:21:52.985Z,96.00
2018-02-17T17:24:21.335Z,96.00
2018-02-17T17:26:48.863Z,96.00
2018-02-17T17:29:16.449Z,96.00
2018-02-17T17:31:43.983Z,96.00
2018-02-17T17:34:11.563Z,96.00
2018-02-17T17:36:39.109Z,96.00
2018-02-17T17:39:06.692Z,96.00
2018-02-17T17:41:34.227Z,96.00
2018-02-17T17:44:01.807Z,96.30
2018-02-17T17:46:29.339Z,96.00
2018-02-17T17:48:56.932Z,96.00
2018-02-17T17:51:25.246Z,96.00
2018-02-17T17:53:52.829Z,96.00
2018-02-17T17:56:20.367Z,96.00
2018-02-17T17:58:47.947Z,96.00
2018-02-17T18:01:15.485Z,96.00
2018-02-17T18:03:43.064Z,96.00
2018-02-17T18:06:10.663Z,96.00
2018-02-17T18:08:38.254Z,95.90
2018-02-17T18:11:06.556Z,95.90
2018-02-17T18:13:34.144Z,95.90
2018-02-17T18:16:01.679Z,96.00
2018-02-17T18:18:29.261Z,96.00
2018-02-17T18:20:56.800Z,96.00
2018-02-17T18:23:24.381Z,96.00
2018-02-17T18:25:51.913Z,96.00
2018-02-17T18:28:19.495Z,96.00
2018-02-17T18:30:47.024Z,96.00
2018-02-17T18:33:14.604Z,96.00
2018-02-17T18:35:42.134Z,96.00
2018-02-17T18:38:09.722Z,95.90
2018-02-17T18:40:37.263Z,96.00
2018-02-17T18:43:04.853Z,96.00
2018-02-17T18:45:32.394Z,96.00
2018-02-17T18:48:00.007Z,96.60
2018-02-17T18:50:27.545Z,98.50
2018-02-17T18:52:55.133Z,99.80
2018-02-17T18:55:23.443Z,99.40
2018-02-17T18:57:51.028Z,99.40
2018-02-17T19:00:18.576Z,99.20
2018-02-17T19:02:46.160Z,98.80
2018-02-17T19:05:13.693Z,98.70
2018-02-17T19:07:41.279Z,98.60
2018-02-17T19:10:08.818Z,98.50
2018-02-17T19:12:36.408Z,98.30
2018-02-17T19:15:03.951Z,97.90
2018-02-17T19:17:31.536Z,97.90
2018-02-17T19:19:59.077Z,97.40
2018-02-17T19:22:26.676Z,97.20
2018-02-17T19:24:54.227Z,96.50
2018-02-17T19:27:22.584Z,95.30
2018-02-17T19:29:50.127Z,95.30
2018-02-17T19:32:17.717Z,95.40
2018-02-17T19:34:46.045Z,95.00
2018-02-17T19:37:13.633Z,94.60
2018-02-17T19:39:41.168Z,94.30
2018-02-17T19:42:08.756Z,94.40
2018-02-17T19:44:36.368Z,94.40
2018-02-17T19:47:03.965Z,93.90
2018-02-17T19:49:31.504Z,93.70
2018-02-17T19:51:59.096Z,93.60
2018-02-17T19:54:26.642Z,93.60
2018-02-17T19:56:54.232Z,93.60
2018-02-17T19:59:22.567Z,93.70
2018-02-17T20:01:50.156Z,93.30
2018-02-17T20:04:17.744Z,93.20
2018-02-17T20:06:46.116Z,93.10
2018-02-17T20:09:14.432Z,93.00
2018-02-17T20:11:42.025Z,93.00
2018-02-17T20:14:09.576Z,93.10
2018-02-17T20:16:37.172Z,93.10
2018-02-17T20:19:05.489Z,92.70
2018-02-17T20:21:33.076Z,92.70
2018-02-17T20:24:00.657Z,92.90
2018-02-17T20:26:28.253Z,92.80
2018-02-17T20:28:55.802Z,93.00
2018-02-17T20:31:24.163Z,92.90
2018-02-17T20:33:51.713Z,92.80
2018-02-17T20:36:19.305Z,92.90
2018-02-17T20:38:47.611Z,92.80
2018-02-17T20:41:15.211Z,92.80
2018-02-17T20:43:42.752Z,92.70
2018-02-17T20:46:10.346Z,92.80
2018-02-17T20:48:38.696Z,92.80
2018-02-17T20:51:06.291Z,92.80
2018-02-17T20:53:34.607Z,92.70
2018-02-17T20:56:02.201Z,92.70
2018-02-17T20:58:29.747Z,92.80
2018-02-17T21:00:57.344Z,92.90
2018-02-17T21:03:25.664Z,92.80
2018-02-17T21:05:53.259Z,92.70
2018-02-17T21:08:20.796Z,92.90
2018-02-17T21:10:48.392Z,92.90
2018-02-17T21:13:15.936Z,92.80
2018-02-17T21:15:43.543Z,93.00
2018-02-17T21:18:11.085Z,93.00
2018-02-17T21:20:39.465Z,93.00
2018-02-17T21:23:07.772Z,93.00
2018-02-17T21:25:35.390Z,93.00
2018-02-17T21:28:02.955Z,93.00
2018-02-17T21:30:30.543Z,93.50
2018-02-17T21:32:58.092Z,93.10
2018-02-17T21:35:26.445Z,93.10
2018-02-17T21:37:53.988Z,93.10
2018-02-17T21:40:21.573Z,93.30
2018-02-17T21:42:49.110Z,93.20
2018-02-17T21:45:16.700Z,93.10
2018-02-17T21:47:45.012Z,93.20
2018-02-17T21:50:12.683Z,93.20
2018-02-17T21:52:40.224Z,93.10
2018-02-17T21:55:07.819Z,93.20
2018-02-17T21:57:35.371Z,93.30
2018-02-17T22:00:02.993Z,93.20
2018-02-17T22:02:30.542Z,93.30
2018-02-17T22:04:58.895Z,93.30
2018-02-17T22:07:26.438Z,93.30
2018-02-17T22:09:54.042Z,93.40
2018-02-17T22:12:22.348Z,93.50
2018-02-17T22:14:49.960Z,93.40
2018-02-17T22:17:17.504Z,93.50
2018-02-17T22:19:45.243Z,93.40
2018-02-17T22:22:12.812Z,93.40
2018-02-17T22:24:40.395Z,93.40
2018-02-17T22:27:08.024Z,93.50
2018-02-17T22:29:35.617Z,93.50
2018-02-17T22:32:03.152Z,93.50
2018-02-17T22:34:30.749Z,93.60
2018-02-17T22:36:58.287Z,93.70
2018-02-17T22:39:25.871Z,93.60
2018-02-17T22:41:53.407Z,93.70
2018-02-17T22:44:21.045Z,93.80
2018-02-17T22:46:48.581Z,93.70
2018-02-17T22:49:16.172Z,93.70
2018-02-17T22:51:43.712Z,93.70
2018-02-17T22:54:11.249Z,93.70
2018-02-17T22:56:38.908Z,93.80
2018-02-17T22:59:07.215Z,93.80
2018-02-17T23:01:34.804Z,93.80
2018-02-17T23:04:02.350Z,93.80
2018-02-17T23:06:29.940Z,93.80
2018-02-17T23:08:57.485Z,93.90
2018-02-17T23:11:25.072Z,93.90
2018-02-17T23:13:53.380Z,94.00
2018-02-17T23:16:20.976Z,93.90
2018-02-17T23:18:48.511Z,94.00
2018-02-17T23:21:16.101Z,94.00
2018-02-17T23:23:43.645Z,94.00
2018-02-17T23:26:11.232Z,94.00
2018-02-17T23:28:38.775Z,94.10
2018-02-17T23:31:06.368Z,94.10
2018-02-17T23:33:34.674Z,94.60
2018-02-17T23:36:02.272Z,94.10
2018-02-17T23:38:29.807Z,94.20
2018-02-17T23:40:57.393Z,94.20
2018-02-17T23:43:24.937Z,94.20
2018-02-17T23:45:52.526Z,94.30
2018-02-17T23:48:20.069Z,94.30
2018-02-17T23:50:47.654Z,94.40
2018-02-17T23:53:15.188Z,94.30
2018-02-17T23:55:42.771Z,94.30
2018-02-17T23:58:10.303Z,94.30
